sensor_id;sensor_type;location;lat;lon;timestamp;P1;durP1;ratioP1;P2;durP2;ratioP2
19456;SDS011;9867;48.094;11.478;2023-04-01T00:00:33;1.90;;;1.10;;
19456;SDS011;9867;48.094;11.478;2023-04-01T00:03:01;1.70;;;0.90;;
19456;SDS011;9867;48.094;11.478;2023-04-01T00:05:31;1.40;;;1.10;;
19456;SDS011;9867;48.094;11.478;2023-04-01T00:07:59;1.03;;;0.90;;
19456;SDS011;9867;48.094;11.478;2023-04-01T00:10:27;1.97;;;1.10;;
19456;SDS011;9867;48.094;11.478;2023-04-01T00:12:55;2.37;;;1.10;;
19456;SDS011;9867;48.094;11.478;2023-04-01T00:15:23;1.77;;;1.17;;
19456;SDS011;9867;48.094;11.478;2023-04-01T00:17:51;2.87;;;1.27;;
19456;SDS011;9867;48.094;11.478;2023-04-01T00:20:19;1.37;;;1.17;;
19456;SDS011;9867;48.094;11.478;2023-04-01T00:22:48;1.60;;;1.00;;
19456;SDS011;9867;48.094;11.478;2023-04-01T00:25:16;1.90;;;1.10;;
19456;SDS011;9867;48.094;11.478;2023-04-01T00:27:44;1.37;;;1.00;;
19456;SDS011;9867;48.094;11.478;2023-04-01T00:30:13;1.80;;;1.10;;
19456;SDS011;9867;48.094;11.478;2023-04-01T00:32:41;2.00;;;1.17;;
19456;SDS011;9867;48.094;11.478;2023-04-01T00:35:10;1.63;;;1.43;;
19456;SDS011;9867;48.094;11.478;2023-04-01T00:37:38;3.27;;;1.00;;
19456;SDS011;9867;48.094;11.478;2023-04-01T00:40:11;2.00;;;1.40;;
19456;SDS011;9867;48.094;11.478;2023-04-01T00:42:50;1.47;;;1.03;;
19456;SDS011;9867;48.094;11.478;2023-04-01T00:48:08;1.77;;;1.17;;
19456;SDS011;9867;48.094;11.478;2023-04-01T00:50:39;2.73;;;1.20;;
19456;SDS011;9867;48.094;11.478;2023-04-01T00:53:09;3.23;;;1.20;;
19456;SDS011;9867;48.094;11.478;2023-04-01T00:55:41;2.17;;;1.20;;
19456;SDS011;9867;48.094;11.478;2023-04-01T00:58:14;4.10;;;1.30;;
19456;SDS011;9867;48.094;11.478;2023-04-01T01:00:44;2.93;;;1.27;;
19456;SDS011;9867;48.094;11.478;2023-04-01T01:03:15;3.90;;;1.30;;
19456;SDS011;9867;48.094;11.478;2023-04-01T01:05:54;3.07;;;1.27;;
19456;SDS011;9867;48.094;11.478;2023-04-01T01:08:38;3.00;;;1.30;;
19456;SDS011;9867;48.094;11.478;2023-04-01T01:11:22;1.30;;;1.20;;
19456;SDS011;9867;48.094;11.478;2023-04-01T01:14:09;4.13;;;1.50;;
19456;SDS011;9867;48.094;11.478;2023-04-01T01:16:48;1.97;;;1.20;;
19456;SDS011;9867;48.094;11.478;2023-04-01T01:19:36;5.23;;;1.33;;
19456;SDS011;9867;48.094;11.478;2023-04-01T01:22:21;2.33;;;1.30;;
19456;SDS011;9867;48.094;11.478;2023-04-01T01:25:16;3.60;;;1.20;;
19456;SDS011;9867;48.094;11.478;2023-04-01T01:27:56;4.00;;;1.00;;
19456;SDS011;9867;48.094;11.478;2023-04-01T01:30:38;1.43;;;0.97;;
19456;SDS011;9867;48.094;11.478;2023-04-01T01:33:24;1.50;;;1.10;;
19456;SDS011;9867;48.094;11.478;2023-04-01T01:36:14;1.50;;;1.30;;
19456;SDS011;9867;48.094;11.478;2023-04-01T01:38:44;2.17;;;1.20;;
19456;SDS011;9867;48.094;11.478;2023-04-01T01:41:13;3.60;;;1.37;;
19456;SDS011;9867;48.094;11.478;2023-04-01T01:43:46;2.17;;;1.30;;
19456;SDS011;9867;48.094;11.478;2023-04-01T01:46:17;2.90;;;1.00;;
19456;SDS011;9867;48.094;11.478;2023-04-01T01:48:48;3.77;;;1.47;;
19456;SDS011;9867;48.094;11.478;2023-04-01T01:51:20;2.53;;;1.27;;
19456;SDS011;9867;48.094;11.478;2023-04-01T01:53:50;2.00;;;1.00;;
19456;SDS011;9867;48.094;11.478;2023-04-01T01:56:19;1.40;;;1.13;;
19456;SDS011;9867;48.094;11.478;2023-04-01T01:58:51;2.83;;;1.27;;
19456;SDS011;9867;48.094;11.478;2023-04-01T02:01:24;1.77;;;1.23;;
19456;SDS011;9867;48.094;11.478;2023-04-01T02:03:57;2.10;;;1.07;;
19456;SDS011;9867;48.094;11.478;2023-04-01T02:06:29;2.43;;;1.33;;
19456;SDS011;9867;48.094;11.478;2023-04-01T02:09:00;2.30;;;1.10;;
19456;SDS011;9867;48.094;11.478;2023-04-01T02:11:32;1.73;;;1.10;;
19456;SDS011;9867;48.094;11.478;2023-04-01T02:14:04;0.87;;;0.87;;
19456;SDS011;9867;48.094;11.478;2023-04-01T02:16:36;2.40;;;0.73;;
19456;SDS011;9867;48.094;11.478;2023-04-01T02:19:08;2.37;;;1.10;;
19456;SDS011;9867;48.094;11.478;2023-04-01T02:21:41;1.20;;;1.10;;
19456;SDS011;9867;48.094;11.478;2023-04-01T02:24:11;1.23;;;0.90;;
19456;SDS011;9867;48.094;11.478;2023-04-01T02:26:42;1.87;;;0.90;;
19456;SDS011;9867;48.094;11.478;2023-04-01T02:29:12;0.83;;;0.83;;
19456;SDS011;9867;48.094;11.478;2023-04-01T02:31:40;0.93;;;0.80;;
19456;SDS011;9867;48.094;11.478;2023-04-01T02:34:09;0.60;;;0.60;;
19456;SDS011;9867;48.094;11.478;2023-04-01T02:36:38;0.77;;;0.77;;
19456;SDS011;9867;48.094;11.478;2023-04-01T02:39:07;0.90;;;0.90;;
19456;SDS011;9867;48.094;11.478;2023-04-01T02:41:38;0.83;;;0.80;;
19456;SDS011;9867;48.094;11.478;2023-04-01T02:44:07;0.80;;;0.80;;
19456;SDS011;9867;48.094;11.478;2023-04-01T02:46:36;0.70;;;0.70;;
19456;SDS011;9867;48.094;11.478;2023-04-01T02:49:04;0.87;;;0.77;;
19456;SDS011;9867;48.094;11.478;2023-04-01T02:51:33;0.80;;;0.80;;
19456;SDS011;9867;48.094;11.478;2023-04-01T02:54:01;0.60;;;0.60;;
19456;SDS011;9867;48.094;11.478;2023-04-01T02:56:31;0.80;;;0.80;;
19456;SDS011;9867;48.094;11.478;2023-04-01T02:58:59;1.37;;;0.90;;
19456;SDS011;9867;48.094;11.478;2023-04-01T03:01:27;0.60;;;0.60;;
19456;SDS011;9867;48.094;11.478;2023-04-01T03:03:55;0.90;;;0.63;;
19456;SDS011;9867;48.094;11.478;2023-04-01T03:06:22;0.97;;;0.87;;
19456;SDS011;9867;48.094;11.478;2023-04-01T03:08:50;0.73;;;0.73;;
19456;SDS011;9867;48.094;11.478;2023-04-01T03:11:18;1.00;;;0.90;;
19456;SDS011;9867;48.094;11.478;2023-04-01T03:13:48;1.10;;;1.00;;
19456;SDS011;9867;48.094;11.478;2023-04-01T03:16:16;0.60;;;0.60;;
19456;SDS011;9867;48.094;11.478;2023-04-01T03:18:44;0.57;;;0.57;;
19456;SDS011;9867;48.094;11.478;2023-04-01T03:21:15;0.40;;;0.40;;
19456;SDS011;9867;48.094;11.478;2023-04-01T03:23:44;0.53;;;0.53;;
19456;SDS011;9867;48.094;11.478;2023-04-01T03:26:12;0.67;;;0.67;;
19456;SDS011;9867;48.094;11.478;2023-04-01T03:28:41;0.60;;;0.60;;
19456;SDS011;9867;48.094;11.478;2023-04-01T03:31:10;0.60;;;0.60;;
19456;SDS011;9867;48.094;11.478;2023-04-01T03:33:45;0.70;;;0.70;;
19456;SDS011;9867;48.094;11.478;2023-04-01T03:36:13;0.60;;;0.60;;
19456;SDS011;9867;48.094;11.478;2023-04-01T03:38:42;0.67;;;0.67;;
19456;SDS011;9867;48.094;11.478;2023-04-01T03:41:14;1.00;;;1.00;;
19456;SDS011;9867;48.094;11.478;2023-04-01T03:43:43;0.80;;;0.70;;
19456;SDS011;9867;48.094;11.478;2023-04-01T03:46:16;1.70;;;0.80;;
19456;SDS011;9867;48.094;11.478;2023-04-01T03:48:45;0.80;;;0.80;;
19456;SDS011;9867;48.094;11.478;2023-04-01T03:51:13;0.90;;;0.80;;
19456;SDS011;9867;48.094;11.478;2023-04-01T03:53:41;1.23;;;0.90;;
19456;SDS011;9867;48.094;11.478;2023-04-01T03:56:09;1.10;;;1.00;;
19456;SDS011;9867;48.094;11.478;2023-04-01T03:58:37;1.47;;;0.80;;
19456;SDS011;9867;48.094;11.478;2023-04-01T04:01:16;1.03;;;0.97;;
19456;SDS011;9867;48.094;11.478;2023-04-01T04:03:46;2.50;;;1.10;;
19456;SDS011;9867;48.094;11.478;2023-04-01T04:06:16;1.13;;;0.90;;
19456;SDS011;9867;48.094;11.478;2023-04-01T04:08:44;1.23;;;1.13;;
19456;SDS011;9867;48.094;11.478;2023-04-01T04:11:12;1.10;;;1.03;;
19456;SDS011;9867;48.094;11.478;2023-04-01T04:13:42;0.80;;;0.80;;
19456;SDS011;9867;48.094;11.478;2023-04-01T04:16:10;2.10;;;0.90;;
19456;SDS011;9867;48.094;11.478;2023-04-01T04:18:44;0.80;;;0.80;;
19456;SDS011;9867;48.094;11.478;2023-04-01T04:21:12;1.17;;;0.80;;
19456;SDS011;9867;48.094;11.478;2023-04-01T04:23:41;0.80;;;0.70;;
19456;SDS011;9867;48.094;11.478;2023-04-01T04:26:13;0.80;;;0.80;;
19456;SDS011;9867;48.094;11.478;2023-04-01T04:28:47;0.80;;;0.80;;
19456;SDS011;9867;48.094;11.478;2023-04-01T04:31:18;0.93;;;0.80;;
19456;SDS011;9867;48.094;11.478;2023-04-01T04:33:49;2.20;;;0.90;;
19456;SDS011;9867;48.094;11.478;2023-04-01T04:36:18;1.80;;;0.73;;
19456;SDS011;9867;48.094;11.478;2023-04-01T04:38:48;1.93;;;0.90;;
19456;SDS011;9867;48.094;11.478;2023-04-01T04:41:18;0.70;;;0.70;;
19456;SDS011;9867;48.094;11.478;2023-04-01T04:43:50;1.10;;;0.70;;
19456;SDS011;9867;48.094;11.478;2023-04-01T04:46:20;1.13;;;1.07;;
19456;SDS011;9867;48.094;11.478;2023-04-01T04:48:56;1.97;;;0.97;;
19456;SDS011;9867;48.094;11.478;2023-04-01T04:51:24;1.57;;;1.10;;
19456;SDS011;9867;48.094;11.478;2023-04-01T04:53:53;1.67;;;0.90;;
19456;SDS011;9867;48.094;11.478;2023-04-01T04:56:31;1.43;;;0.97;;
19456;SDS011;9867;48.094;11.478;2023-04-01T04:59:04;1.70;;;1.23;;
19456;SDS011;9867;48.094;11.478;2023-04-01T05:01:41;1.57;;;1.17;;
19456;SDS011;9867;48.094;11.478;2023-04-01T05:04:11;1.40;;;1.10;;
19456;SDS011;9867;48.094;11.478;2023-04-01T05:06:38;1.73;;;0.90;;
19456;SDS011;9867;48.094;11.478;2023-04-01T05:09:06;1.00;;;0.90;;
19456;SDS011;9867;48.094;11.478;2023-04-01T05:11:35;0.77;;;0.77;;
19456;SDS011;9867;48.094;11.478;2023-04-01T05:14:02;1.13;;;1.00;;
19456;SDS011;9867;48.094;11.478;2023-04-01T05:16:31;1.63;;;1.10;;
19456;SDS011;9867;48.094;11.478;2023-04-01T05:18:59;1.10;;;1.00;;
19456;SDS011;9867;48.094;11.478;2023-04-01T05:21:28;2.30;;;1.03;;
19456;SDS011;9867;48.094;11.478;2023-04-01T05:23:56;0.83;;;0.83;;
19456;SDS011;9867;48.094;11.478;2023-04-01T05:26:25;1.37;;;1.10;;
19456;SDS011;9867;48.094;11.478;2023-04-01T05:28:53;1.20;;;0.90;;
19456;SDS011;9867;48.094;11.478;2023-04-01T05:31:21;0.93;;;0.93;;
19456;SDS011;9867;48.094;11.478;2023-04-01T05:33:50;1.33;;;1.10;;
19456;SDS011;9867;48.094;11.478;2023-04-01T05:36:19;1.60;;;0.97;;
19456;SDS011;9867;48.094;11.478;2023-04-01T05:38:49;0.87;;;0.87;;
19456;SDS011;9867;48.094;11.478;2023-04-01T05:41:18;2.87;;;0.93;;
19456;SDS011;9867;48.094;11.478;2023-04-01T05:43:46;1.93;;;1.07;;
19456;SDS011;9867;48.094;11.478;2023-04-01T05:46:43;2.40;;;1.37;;
19456;SDS011;9867;48.094;11.478;2023-04-01T05:49:22;1.60;;;0.93;;
19456;SDS011;9867;48.094;11.478;2023-04-01T05:51:54;3.23;;;1.20;;
19456;SDS011;9867;48.094;11.478;2023-04-01T05:54:23;2.57;;;1.30;;
19456;SDS011;9867;48.094;11.478;2023-04-01T05:56:51;1.57;;;1.03;;
19456;SDS011;9867;48.094;11.478;2023-04-01T05:59:19;1.43;;;0.80;;
19456;SDS011;9867;48.094;11.478;2023-04-01T06:01:47;1.57;;;1.13;;
19456;SDS011;9867;48.094;11.478;2023-04-01T06:04:16;2.67;;;1.20;;
19456;SDS011;9867;48.094;11.478;2023-04-01T06:06:45;2.00;;;1.50;;
19456;SDS011;9867;48.094;11.478;2023-04-01T06:09:14;1.47;;;1.00;;
19456;SDS011;9867;48.094;11.478;2023-04-01T06:11:58;1.43;;;1.00;;
19456;SDS011;9867;48.094;11.478;2023-04-01T06:14:58;1.93;;;1.10;;
19456;SDS011;9867;48.094;11.478;2023-04-01T06:17:41;2.27;;;1.33;;
19456;SDS011;9867;48.094;11.478;2023-04-01T06:20:24;2.63;;;1.10;;
19456;SDS011;9867;48.094;11.478;2023-04-01T06:23:04;2.23;;;1.20;;
19456;SDS011;9867;48.094;11.478;2023-04-01T06:25:45;2.03;;;1.10;;
19456;SDS011;9867;48.094;11.478;2023-04-01T06:28:34;2.10;;;1.40;;
19456;SDS011;9867;48.094;11.478;2023-04-01T06:31:23;1.90;;;1.00;;
19456;SDS011;9867;48.094;11.478;2023-04-01T06:34:21;2.23;;;1.47;;
19456;SDS011;9867;48.094;11.478;2023-04-01T06:37:16;2.37;;;1.10;;
19456;SDS011;9867;48.094;11.478;2023-04-01T06:39:58;2.13;;;1.43;;
19456;SDS011;9867;48.094;11.478;2023-04-01T06:42:43;1.43;;;0.90;;
19456;SDS011;9867;48.094;11.478;2023-04-01T06:45:46;2.47;;;1.40;;
19456;SDS011;9867;48.094;11.478;2023-04-01T06:48:42;2.37;;;1.80;;
19456;SDS011;9867;48.094;11.478;2023-04-01T06:51:43;1.80;;;1.30;;
19456;SDS011;9867;48.094;11.478;2023-04-01T06:54:38;2.43;;;1.10;;
19456;SDS011;9867;48.094;11.478;2023-04-01T06:57:28;1.77;;;1.33;;
19456;SDS011;9867;48.094;11.478;2023-04-01T07:00:03;1.70;;;1.20;;
19456;SDS011;9867;48.094;11.478;2023-04-01T07:02:43;2.30;;;1.30;;
19456;SDS011;9867;48.094;11.478;2023-04-01T07:05:15;2.00;;;0.93;;
19456;SDS011;9867;48.094;11.478;2023-04-01T07:07:43;1.63;;;0.90;;
19456;SDS011;9867;48.094;11.478;2023-04-01T07:10:16;1.27;;;0.80;;
19456;SDS011;9867;48.094;11.478;2023-04-01T07:13:06;3.37;;;1.03;;
19456;SDS011;9867;48.094;11.478;2023-04-01T07:15:58;1.53;;;0.90;;
19456;SDS011;9867;48.094;11.478;2023-04-01T07:18:38;1.30;;;0.90;;
19456;SDS011;9867;48.094;11.478;2023-04-01T07:21:15;2.47;;;1.17;;
19456;SDS011;9867;48.094;11.478;2023-04-01T07:23:50;2.07;;;0.90;;
19456;SDS011;9867;48.094;11.478;2023-04-01T07:26:57;1.80;;;0.80;;
19456;SDS011;9867;48.094;11.478;2023-04-01T07:29:29;1.17;;;0.90;;
19456;SDS011;9867;48.094;11.478;2023-04-01T07:32:13;1.60;;;1.00;;
19456;SDS011;9867;48.094;11.478;2023-04-01T07:34:53;1.20;;;0.90;;
19456;SDS011;9867;48.094;11.478;2023-04-01T07:37:30;1.73;;;0.80;;
19456;SDS011;9867;48.094;11.478;2023-04-01T07:40:10;0.73;;;0.73;;
19456;SDS011;9867;48.094;11.478;2023-04-01T07:42:54;1.27;;;1.00;;
19456;SDS011;9867;48.094;11.478;2023-04-01T07:45:37;3.07;;;1.30;;
19456;SDS011;9867;48.094;11.478;2023-04-01T07:48:13;0.73;;;0.73;;
19456;SDS011;9867;48.094;11.478;2023-04-01T07:50:50;2.60;;;0.77;;
19456;SDS011;9867;48.094;11.478;2023-04-01T07:53:28;2.90;;;0.90;;
19456;SDS011;9867;48.094;11.478;2023-04-01T07:56:03;1.53;;;0.80;;
19456;SDS011;9867;48.094;11.478;2023-04-01T07:58:41;1.10;;;0.80;;
19456;SDS011;9867;48.094;11.478;2023-04-01T08:01:39;0.70;;;0.70;;
19456;SDS011;9867;48.094;11.478;2023-04-01T08:04:22;0.70;;;0.70;;
19456;SDS011;9867;48.094;11.478;2023-04-01T08:07:00;0.83;;;0.70;;
19456;SDS011;9867;48.094;11.478;2023-04-01T08:09:41;1.00;;;0.90;;
19456;SDS011;9867;48.094;11.478;2023-04-01T08:12:36;1.17;;;0.80;;
19456;SDS011;9867;48.094;11.478;2023-04-01T08:15:35;0.80;;;0.80;;
19456;SDS011;9867;48.094;11.478;2023-04-01T08:18:20;0.77;;;0.70;;
19456;SDS011;9867;48.094;11.478;2023-04-01T08:20:57;0.87;;;0.70;;
19456;SDS011;9867;48.094;11.478;2023-04-01T08:23:30;0.97;;;0.70;;
19456;SDS011;9867;48.094;11.478;2023-04-01T08:26:01;0.90;;;0.80;;
19456;SDS011;9867;48.094;11.478;2023-04-01T08:28:37;1.20;;;0.50;;
19456;SDS011;9867;48.094;11.478;2023-04-01T08:31:11;0.50;;;0.50;;
19456;SDS011;9867;48.094;11.478;2023-04-01T08:33:43;0.70;;;0.70;;
19456;SDS011;9867;48.094;11.478;2023-04-01T08:36:14;0.80;;;0.80;;
19456;SDS011;9867;48.094;11.478;2023-04-01T08:38:53;1.63;;;0.80;;
19456;SDS011;9867;48.094;11.478;2023-04-01T08:41:39;0.60;;;0.60;;
19456;SDS011;9867;48.094;11.478;2023-04-01T08:44:46;1.17;;;0.80;;
19456;SDS011;9867;48.094;11.478;2023-04-01T08:47:40;0.70;;;0.70;;
19456;SDS011;9867;48.094;11.478;2023-04-01T08:50:21;0.77;;;0.63;;
19456;SDS011;9867;48.094;11.478;2023-04-01T08:53:09;0.60;;;0.60;;
19456;SDS011;9867;48.094;11.478;2023-04-01T08:55:46;0.77;;;0.67;;
19456;SDS011;9867;48.094;11.478;2023-04-01T08:58:31;1.20;;;0.80;;
19456;SDS011;9867;48.094;11.478;2023-04-01T09:01:34;0.73;;;0.73;;
19456;SDS011;9867;48.094;11.478;2023-04-01T09:04:46;0.80;;;0.80;;
19456;SDS011;9867;48.094;11.478;2023-04-01T09:07:33;0.50;;;0.50;;
19456;SDS011;9867;48.094;11.478;2023-04-01T09:13:46;1.07;;;0.60;;
19456;SDS011;9867;48.094;11.478;2023-04-01T09:16:51;1.20;;;0.50;;
19456;SDS011;9867;48.094;11.478;2023-04-01T09:19:41;1.10;;;0.60;;
19456;SDS011;9867;48.094;11.478;2023-04-01T09:22:22;0.43;;;0.43;;
19456;SDS011;9867;48.094;11.478;2023-04-01T09:25:02;0.73;;;0.50;;
19456;SDS011;9867;48.094;11.478;2023-04-01T09:27:47;1.40;;;0.50;;
19456;SDS011;9867;48.094;11.478;2023-04-01T09:30:36;0.50;;;0.50;;
19456;SDS011;9867;48.094;11.478;2023-04-01T09:33:34;0.47;;;0.47;;
19456;SDS011;9867;48.094;11.478;2023-04-01T09:36:19;0.40;;;0.40;;
19456;SDS011;9867;48.094;11.478;2023-04-01T09:39:04;0.30;;;0.30;;
19456;SDS011;9867;48.094;11.478;2023-04-01T09:41:54;0.50;;;0.50;;
19456;SDS011;9867;48.094;11.478;2023-04-01T09:44:40;0.40;;;0.40;;
19456;SDS011;9867;48.094;11.478;2023-04-01T09:47:22;0.50;;;0.50;;
19456;SDS011;9867;48.094;11.478;2023-04-01T09:50:14;0.50;;;0.50;;
19456;SDS011;9867;48.094;11.478;2023-04-01T09:52:55;0.50;;;0.50;;
19456;SDS011;9867;48.094;11.478;2023-04-01T09:55:41;0.63;;;0.40;;
19456;SDS011;9867;48.094;11.478;2023-04-01T09:58:49;0.53;;;0.50;;
19456;SDS011;9867;48.094;11.478;2023-04-01T10:02:13;0.37;;;0.37;;
19456;SDS011;9867;48.094;11.478;2023-04-01T10:08:11;2.77;;;0.57;;
19456;SDS011;9867;48.094;11.478;2023-04-01T10:14:24;0.43;;;0.43;;
19456;SDS011;9867;48.094;11.478;2023-04-01T10:20:36;0.60;;;0.50;;
19456;SDS011;9867;48.094;11.478;2023-04-01T10:26:42;0.40;;;0.40;;
19456;SDS011;9867;48.094;11.478;2023-04-01T10:33:19;0.83;;;0.50;;
19456;SDS011;9867;48.094;11.478;2023-04-01T10:36:09;0.43;;;0.43;;
19456;SDS011;9867;48.094;11.478;2023-04-01T10:39:06;0.77;;;0.50;;
19456;SDS011;9867;48.094;11.478;2023-04-01T10:42:00;0.80;;;0.50;;
19456;SDS011;9867;48.094;11.478;2023-04-01T10:45:17;0.50;;;0.50;;
19456;SDS011;9867;48.094;11.478;2023-04-01T10:48:18;0.50;;;0.50;;
19456;SDS011;9867;48.094;11.478;2023-04-01T10:51:20;0.40;;;0.40;;
19456;SDS011;9867;48.094;11.478;2023-04-01T10:54:14;0.40;;;0.40;;
19456;SDS011;9867;48.094;11.478;2023-04-01T10:57:10;0.40;;;0.40;;
19456;SDS011;9867;48.094;11.478;2023-04-01T11:00:31;0.37;;;0.37;;
19456;SDS011;9867;48.094;11.478;2023-04-01T11:03:53;0.50;;;0.50;;
19456;SDS011;9867;48.094;11.478;2023-04-01T11:07:18;0.43;;;0.43;;
19456;SDS011;9867;48.094;11.478;2023-04-01T11:13:21;0.40;;;0.40;;
19456;SDS011;9867;48.094;11.478;2023-04-01T11:16:41;0.50;;;0.50;;
19456;SDS011;9867;48.094;11.478;2023-04-01T11:19:31;2.83;;;1.00;;
19456;SDS011;9867;48.094;11.478;2023-04-01T11:25:45;0.47;;;0.47;;
19456;SDS011;9867;48.094;11.478;2023-04-01T11:29:03;0.40;;;0.40;;
19456;SDS011;9867;48.094;11.478;2023-04-01T11:31:52;0.40;;;0.40;;
19456;SDS011;9867;48.094;11.478;2023-04-01T11:34:31;0.40;;;0.40;;
19456;SDS011;9867;48.094;11.478;2023-04-01T11:37:15;0.33;;;0.33;;
19456;SDS011;9867;48.094;11.478;2023-04-01T11:40:17;0.40;;;0.40;;
19456;SDS011;9867;48.094;11.478;2023-04-01T11:43:29;0.40;;;0.40;;
19456;SDS011;9867;48.094;11.478;2023-04-01T11:46:24;3.33;;;0.53;;
19456;SDS011;9867;48.094;11.478;2023-04-01T11:49:02;0.63;;;0.63;;
19456;SDS011;9867;48.094;11.478;2023-04-01T11:52:01;0.60;;;0.60;;
19456;SDS011;9867;48.094;11.478;2023-04-01T11:54:42;0.57;;;0.57;;
19456;SDS011;9867;48.094;11.478;2023-04-01T11:57:46;1.37;;;0.77;;
19456;SDS011;9867;48.094;11.478;2023-04-01T12:00:29;0.60;;;0.60;;
19456;SDS011;9867;48.094;11.478;2023-04-01T12:03:15;0.60;;;0.60;;
19456;SDS011;9867;48.094;11.478;2023-04-01T12:05:58;0.50;;;0.50;;
19456;SDS011;9867;48.094;11.478;2023-04-01T12:08:36;0.40;;;0.40;;
19456;SDS011;9867;48.094;11.478;2023-04-01T12:11:15;0.57;;;0.57;;
19456;SDS011;9867;48.094;11.478;2023-04-01T12:13:52;0.60;;;0.60;;
19456;SDS011;9867;48.094;11.478;2023-04-01T12:16:42;0.60;;;0.60;;
19456;SDS011;9867;48.094;11.478;2023-04-01T12:19:20;0.60;;;0.60;;
19456;SDS011;9867;48.094;11.478;2023-04-01T12:21:58;0.70;;;0.70;;
19456;SDS011;9867;48.094;11.478;2023-04-01T12:24:45;0.60;;;0.60;;
19456;SDS011;9867;48.094;11.478;2023-04-01T12:33:04;0.57;;;0.57;;
19456;SDS011;9867;48.094;11.478;2023-04-01T12:35:49;0.50;;;0.50;;
19456;SDS011;9867;48.094;11.478;2023-04-01T12:38:28;0.70;;;0.70;;
19456;SDS011;9867;48.094;11.478;2023-04-01T12:41:10;0.60;;;0.60;;
19456;SDS011;9867;48.094;11.478;2023-04-01T12:46:56;0.80;;;0.80;;
19456;SDS011;9867;48.094;11.478;2023-04-01T12:52:39;0.53;;;0.53;;
19456;SDS011;9867;48.094;11.478;2023-04-01T12:55:29;0.60;;;0.60;;
19456;SDS011;9867;48.094;11.478;2023-04-01T13:01:27;1.10;;;1.10;;
19456;SDS011;9867;48.094;11.478;2023-04-01T13:07:46;0.77;;;0.77;;
19456;SDS011;9867;48.094;11.478;2023-04-01T13:10:27;0.60;;;0.60;;
19456;SDS011;9867;48.094;11.478;2023-04-01T13:13:18;0.73;;;0.73;;
19456;SDS011;9867;48.094;11.478;2023-04-01T13:16:01;1.00;;;1.00;;
19456;SDS011;9867;48.094;11.478;2023-04-01T13:18:38;1.03;;;1.03;;
19456;SDS011;9867;48.094;11.478;2023-04-01T13:21:24;0.97;;;0.97;;
19456;SDS011;9867;48.094;11.478;2023-04-01T13:24:05;1.43;;;1.30;;
19456;SDS011;9867;48.094;11.478;2023-04-01T13:26:42;2.10;;;1.67;;
19456;SDS011;9867;48.094;11.478;2023-04-01T13:29:21;1.40;;;1.30;;
19456;SDS011;9867;48.094;11.478;2023-04-01T13:31:56;1.17;;;1.10;;
19456;SDS011;9867;48.094;11.478;2023-04-01T13:34:36;0.80;;;0.80;;
19456;SDS011;9867;48.094;11.478;2023-04-01T13:37:18;0.70;;;0.70;;
19456;SDS011;9867;48.094;11.478;2023-04-01T13:40:03;0.80;;;0.60;;
19456;SDS011;9867;48.094;11.478;2023-04-01T13:42:48;0.80;;;0.80;;
19456;SDS011;9867;48.094;11.478;2023-04-01T13:45:26;0.60;;;0.60;;
19456;SDS011;9867;48.094;11.478;2023-04-01T13:48:32;0.77;;;0.77;;
19456;SDS011;9867;48.094;11.478;2023-04-01T13:51:31;1.23;;;1.03;;
19456;SDS011;9867;48.094;11.478;2023-04-01T13:54:17;0.70;;;0.70;;
19456;SDS011;9867;48.094;11.478;2023-04-01T14:00:30;0.70;;;0.70;;
19456;SDS011;9867;48.094;11.478;2023-04-01T14:03:13;0.60;;;0.60;;
19456;SDS011;9867;48.094;11.478;2023-04-01T14:05:56;0.97;;;0.87;;
19456;SDS011;9867;48.094;11.478;2023-04-01T14:08:36;0.80;;;0.80;;
19456;SDS011;9867;48.094;11.478;2023-04-01T14:11:25;0.73;;;0.73;;
19456;SDS011;9867;48.094;11.478;2023-04-01T14:14:04;0.80;;;0.80;;
19456;SDS011;9867;48.094;11.478;2023-04-01T14:16:51;1.00;;;0.80;;
19456;SDS011;9867;48.094;11.478;2023-04-01T14:19:36;0.80;;;0.70;;
19456;SDS011;9867;48.094;11.478;2023-04-01T14:22:20;0.63;;;0.63;;
19456;SDS011;9867;48.094;11.478;2023-04-01T14:25:04;0.63;;;0.63;;
19456;SDS011;9867;48.094;11.478;2023-04-01T14:27:51;0.47;;;0.47;;
19456;SDS011;9867;48.094;11.478;2023-04-01T14:33:30;0.70;;;0.70;;
19456;SDS011;9867;48.094;11.478;2023-04-01T14:36:19;0.80;;;0.80;;
19456;SDS011;9867;48.094;11.478;2023-04-01T14:39:08;0.80;;;0.80;;
19456;SDS011;9867;48.094;11.478;2023-04-01T14:41:47;0.80;;;0.67;;
19456;SDS011;9867;48.094;11.478;2023-04-01T14:44:23;0.80;;;0.80;;
19456;SDS011;9867;48.094;11.478;2023-04-01T14:47:25;0.60;;;0.60;;
19456;SDS011;9867;48.094;11.478;2023-04-01T14:50:03;0.80;;;0.80;;
19456;SDS011;9867;48.094;11.478;2023-04-01T14:52:38;0.70;;;0.70;;
19456;SDS011;9867;48.094;11.478;2023-04-01T14:58:07;0.80;;;0.80;;
19456;SDS011;9867;48.094;11.478;2023-04-01T15:00:41;1.37;;;1.33;;
19456;SDS011;9867;48.094;11.478;2023-04-01T15:03:17;0.97;;;0.97;;
19456;SDS011;9867;48.094;11.478;2023-04-01T15:05:49;1.07;;;0.97;;
19456;SDS011;9867;48.094;11.478;2023-04-01T15:08:23;1.00;;;1.00;;
19456;SDS011;9867;48.094;11.478;2023-04-01T15:11:14;0.70;;;0.70;;
19456;SDS011;9867;48.094;11.478;2023-04-01T15:16:55;0.70;;;0.70;;
19456;SDS011;9867;48.094;11.478;2023-04-01T15:19:41;1.00;;;1.00;;
19456;SDS011;9867;48.094;11.478;2023-04-01T15:22:26;0.87;;;0.87;;
19456;SDS011;9867;48.094;11.478;2023-04-01T15:25:14;0.80;;;0.80;;
19456;SDS011;9867;48.094;11.478;2023-04-01T15:27:52;1.03;;;0.90;;
19456;SDS011;9867;48.094;11.478;2023-04-01T15:30:31;0.80;;;0.80;;
19456;SDS011;9867;48.094;11.478;2023-04-01T15:33:06;1.00;;;1.00;;
19456;SDS011;9867;48.094;11.478;2023-04-01T15:35:49;1.20;;;1.20;;
19456;SDS011;9867;48.094;11.478;2023-04-01T15:38:27;0.93;;;0.80;;
19456;SDS011;9867;48.094;11.478;2023-04-01T15:41:02;0.73;;;0.73;;
19456;SDS011;9867;48.094;11.478;2023-04-01T15:43:40;0.50;;;0.50;;
19456;SDS011;9867;48.094;11.478;2023-04-01T15:46:21;0.50;;;0.50;;
19456;SDS011;9867;48.094;11.478;2023-04-01T15:49:07;0.93;;;0.70;;
19456;SDS011;9867;48.094;11.478;2023-04-01T15:51:46;0.73;;;0.73;;
19456;SDS011;9867;48.094;11.478;2023-04-01T15:54:52;0.80;;;0.80;;
19456;SDS011;9867;48.094;11.478;2023-04-01T15:57:33;0.70;;;0.70;;
19456;SDS011;9867;48.094;11.478;2023-04-01T16:00:09;0.60;;;0.60;;
19456;SDS011;9867;48.094;11.478;2023-04-01T16:03:01;0.87;;;0.87;;
19456;SDS011;9867;48.094;11.478;2023-04-01T16:05:50;1.00;;;1.00;;
19456;SDS011;9867;48.094;11.478;2023-04-01T16:08:37;0.97;;;0.97;;
19456;SDS011;9867;48.094;11.478;2023-04-01T16:11:18;1.00;;;1.00;;
19456;SDS011;9867;48.094;11.478;2023-04-01T16:13:58;1.20;;;1.00;;
19456;SDS011;9867;48.094;11.478;2023-04-01T16:16:38;1.27;;;0.90;;
19456;SDS011;9867;48.094;11.478;2023-04-01T16:19:19;0.60;;;0.60;;
19456;SDS011;9867;48.094;11.478;2023-04-01T16:22:12;0.50;;;0.50;;
19456;SDS011;9867;48.094;11.478;2023-04-01T16:24:46;0.50;;;0.50;;
19456;SDS011;9867;48.094;11.478;2023-04-01T16:27:19;0.80;;;0.80;;
19456;SDS011;9867;48.094;11.478;2023-04-01T16:29:56;1.33;;;1.20;;
19456;SDS011;9867;48.094;11.478;2023-04-01T16:32:33;0.60;;;0.60;;
19456;SDS011;9867;48.094;11.478;2023-04-01T16:35:21;0.80;;;0.80;;
19456;SDS011;9867;48.094;11.478;2023-04-01T16:37:59;0.80;;;0.80;;
19456;SDS011;9867;48.094;11.478;2023-04-01T16:40:37;0.77;;;0.77;;
19456;SDS011;9867;48.094;11.478;2023-04-01T16:43:11;0.83;;;0.70;;
19456;SDS011;9867;48.094;11.478;2023-04-01T16:45:51;0.50;;;0.50;;
19456;SDS011;9867;48.094;11.478;2023-04-01T16:48:24;1.10;;;1.10;;
19456;SDS011;9867;48.094;11.478;2023-04-01T16:51:02;0.70;;;0.70;;
19456;SDS011;9867;48.094;11.478;2023-04-01T16:53:41;0.97;;;0.83;;
19456;SDS011;9867;48.094;11.478;2023-04-01T16:56:13;0.70;;;0.70;;
19456;SDS011;9867;48.094;11.478;2023-04-01T16:58:56;1.17;;;0.70;;
19456;SDS011;9867;48.094;11.478;2023-04-01T17:01:29;0.70;;;0.70;;
19456;SDS011;9867;48.094;11.478;2023-04-01T17:04:11;1.07;;;0.80;;